sensor_id;sensor_type;location;lat;lon;timestamp;pressure;altitude;pressure_sealevel;temperature;humidity
37792;BME280;29527;55.766;37.570;2023-05-22T00:00:16;100502.56;;;13.19;59.67
37792;BME280;29527;55.766;37.570;2023-05-22T00:02:42;100486.81;;;13.14;59.46
37792;BME280;29527;55.766;37.570;2023-05-22T00:05:12;100506.13;;;13.19;60.14
37792;BME280;29527;55.766;37.570;2023-05-22T00:07:37;100490.34;;;13.15;59.04
37792;BME280;29527;55.766;37.570;2023-05-22T00:10:05;100505.50;;;13.16;59.18
37792;BME280;29527;55.766;37.570;2023-05-22T00:12:31;100496.81;;;13.12;59.06
37792;BME280;29527;55.766;37.570;2023-05-22T00:14:56;100510.50;;;13.09;59.78
37792;BME280;29527;55.766;37.570;2023-05-22T00:17:22;100513.81;;;13.13;59.20
37792;BME280;29527;55.766;37.570;2023-05-22T00:19:49;100512.47;;;13.18;58.74
37792;BME280;29527;55.766;37.570;2023-05-22T00:22:15;100499.34;;;13.25;58.37
37792;BME280;29527;55.766;37.570;2023-05-22T00:24:41;100506.06;;;13.31;58.49
37792;BME280;29527;55.766;37.570;2023-05-22T00:27:06;100500.34;;;13.35;58.38
37792;BME280;29527;55.766;37.570;2023-05-22T00:29:32;100507.81;;;13.43;58.25
37792;BME280;29527;55.766;37.570;2023-05-22T00:31:57;100504.00;;;13.46;58.72
37792;BME280;29527;55.766;37.570;2023-05-22T00:34:23;100498.38;;;13.38;59.05
37792;BME280;29527;55.766;37.570;2023-05-22T00:36:48;100491.75;;;13.42;59.42
37792;BME280;29527;55.766;37.570;2023-05-22T00:39:14;100494.34;;;13.32;59.46
37792;BME280;29527;55.766;37.570;2023-05-22T00:41:40;100486.41;;;13.19;59.86
37792;BME280;29527;55.766;37.570;2023-05-22T00:44:05;100505.00;;;13.11;60.43
37792;BME280;29527;55.766;37.570;2023-05-22T00:46:32;100495.38;;;12.97;61.09
37792;BME280;29527;55.766;37.570;2023-05-22T00:48:57;100476.44;;;12.75;60.59
37792;BME280;29527;55.766;37.570;2023-05-22T00:51:23;100500.63;;;12.87;60.92
37792;BME280;29527;55.766;37.570;2023-05-22T00:53:49;100503.66;;;12.82;60.98
37792;BME280;29527;55.766;37.570;2023-05-22T00:56:16;100499.03;;;12.73;61.61
37792;BME280;29527;55.766;37.570;2023-05-22T00:58:43;100502.69;;;12.72;61.79
37792;BME280;29527;55.766;37.570;2023-05-22T01:01:09;100505.25;;;12.73;61.96
37792;BME280;29527;55.766;37.570;2023-05-22T01:03:37;100471.91;;;12.53;61.85
37792;BME280;29527;55.766;37.570;2023-05-22T01:06:15;100469.13;;;12.55;62.05
37792;BME280;29527;55.766;37.570;2023-05-22T01:08:44;100472.53;;;12.57;62.43
37792;BME280;29527;55.766;37.570;2023-05-22T01:17:02;100490.34;;;12.58;62.90
37792;BME280;29527;55.766;37.570;2023-05-22T01:19:52;100493.78;;;12.60;63.16
37792;BME280;29527;55.766;37.570;2023-05-22T01:33:19;100502.78;;;12.36;63.73
37792;BME280;29527;55.766;37.570;2023-05-22T01:35:47;100506.44;;;12.35;63.63
37792;BME280;29527;55.766;37.570;2023-05-22T01:38:16;100466.84;;;12.14;63.72
37792;BME280;29527;55.766;37.570;2023-05-22T01:40:43;100486.63;;;12.25;63.68
37792;BME280;29527;55.766;37.570;2023-05-22T01:43:10;100490.78;;;12.29;63.89
37792;BME280;29527;55.766;37.570;2023-05-22T01:45:37;100498.63;;;12.32;64.04
37792;BME280;29527;55.766;37.570;2023-05-22T01:48:02;100495.06;;;12.31;64.06
37792;BME280;29527;55.766;37.570;2023-05-22T01:50:30;100503.03;;;12.33;64.08
37792;BME280;29527;55.766;37.570;2023-05-22T01:55:39;100501.66;;;12.39;64.30
37792;BME280;29527;55.766;37.570;2023-05-22T02:00:49;100483.94;;;12.25;64.26
37792;BME280;29527;55.766;37.570;2023-05-22T02:03:21;100498.25;;;12.37;64.07
37792;BME280;29527;55.766;37.570;2023-05-22T02:05:52;100492.88;;;12.37;64.18
37792;BME280;29527;55.766;37.570;2023-05-22T02:08:20;100500.47;;;12.43;64.32
37792;BME280;29527;55.766;37.570;2023-05-22T02:10:47;100504.00;;;12.43;64.27
37792;BME280;29527;55.766;37.570;2023-05-22T02:13:14;100473.84;;;12.28;64.11
37792;BME280;29527;55.766;37.570;2023-05-22T02:15:44;100497.41;;;12.47;64.12
37792;BME280;29527;55.766;37.570;2023-05-22T02:18:10;100492.03;;;12.47;63.78
37792;BME280;29527;55.766;37.570;2023-05-22T02:20:37;100504.97;;;12.54;63.85
37792;BME280;29527;55.766;37.570;2023-05-22T02:23:03;100456.00;;;12.27;63.28
37792;BME280;29527;55.766;37.570;2023-05-22T02:25:28;100500.38;;;12.56;63.50
37792;BME280;29527;55.766;37.570;2023-05-22T02:27:54;100500.38;;;12.67;62.11
37792;BME280;29527;55.766;37.570;2023-05-22T02:30:19;100517.72;;;12.86;61.10
37792;BME280;29527;55.766;37.570;2023-05-22T02:32:45;100515.78;;;12.88;60.73
37792;BME280;29527;55.766;37.570;2023-05-22T02:35:10;100507.47;;;12.91;59.94
37792;BME280;29527;55.766;37.570;2023-05-22T02:37:36;100521.63;;;13.16;59.23
37792;BME280;29527;55.766;37.570;2023-05-22T02:40:02;100488.41;;;12.94;59.84
37792;BME280;29527;55.766;37.570;2023-05-22T02:42:35;100508.88;;;13.41;56.98
37792;BME280;29527;55.766;37.570;2023-05-22T02:45:01;100518.91;;;13.50;56.09
37792;BME280;29527;55.766;37.570;2023-05-22T02:47:31;100515.47;;;13.48;56.72
37792;BME280;29527;55.766;37.570;2023-05-22T02:49:57;100516.47;;;13.58;55.15
37792;BME280;29527;55.766;37.570;2023-05-22T02:52:22;100532.09;;;13.64;54.44
37792;BME280;29527;55.766;37.570;2023-05-22T02:54:49;100530.34;;;13.75;53.88
37792;BME280;29527;55.766;37.570;2023-05-22T02:57:14;100552.09;;;13.83;53.07
37792;BME280;29527;55.766;37.570;2023-05-22T02:59:40;100530.56;;;13.83;53.04
37792;BME280;29527;55.766;37.570;2023-05-22T03:02:05;100539.09;;;13.88;52.58
37792;BME280;29527;55.766;37.570;2023-05-22T03:04:31;100528.53;;;13.97;51.91
37792;BME280;29527;55.766;37.570;2023-05-22T03:06:57;100531.00;;;14.00;52.03
37792;BME280;29527;55.766;37.570;2023-05-22T03:09:23;100538.41;;;14.07;52.04
37792;BME280;29527;55.766;37.570;2023-05-22T03:11:49;100543.63;;;14.20;51.56
37792;BME280;29527;55.766;37.570;2023-05-22T03:14:14;100533.38;;;14.14;51.84
37792;BME280;29527;55.766;37.570;2023-05-22T03:16:40;100543.94;;;14.27;51.42
37792;BME280;29527;55.766;37.570;2023-05-22T03:19:10;100540.94;;;14.42;51.39
37792;BME280;29527;55.766;37.570;2023-05-22T03:21:36;100536.28;;;14.44;51.45
37792;BME280;29527;55.766;37.570;2023-05-22T03:24:02;100535.03;;;14.48;51.29
37792;BME280;29527;55.766;37.570;2023-05-22T03:26:28;100534.28;;;14.67;50.66
37792;BME280;29527;55.766;37.570;2023-05-22T03:28:54;100523.13;;;14.72;50.77
37792;BME280;29527;55.766;37.570;2023-05-22T03:31:20;100514.84;;;14.85;50.13
37792;BME280;29527;55.766;37.570;2023-05-22T03:33:47;100511.22;;;15.05;49.67
37792;BME280;29527;55.766;37.570;2023-05-22T03:36:13;100512.56;;;15.21;49.62
37792;BME280;29527;55.766;37.570;2023-05-22T03:38:38;100526.28;;;15.49;49.20
37792;BME280;29527;55.766;37.570;2023-05-22T03:41:04;100513.94;;;15.76;48.55
37792;BME280;29527;55.766;37.570;2023-05-22T03:43:29;100523.94;;;16.15;47.01
37792;BME280;29527;55.766;37.570;2023-05-22T03:45:55;100525.91;;;16.42;46.63
37792;BME280;29527;55.766;37.570;2023-05-22T03:48:20;100495.84;;;16.55;47.17
37792;BME280;29527;55.766;37.570;2023-05-22T03:50:46;100491.34;;;16.84;45.55
37792;BME280;29527;55.766;37.570;2023-05-22T03:53:11;100498.56;;;17.31;44.87
37792;BME280;29527;55.766;37.570;2023-05-22T03:55:37;100521.38;;;17.74;44.19
37792;BME280;29527;55.766;37.570;2023-05-22T03:58:02;100530.50;;;18.10;42.95
37792;BME280;29527;55.766;37.570;2023-05-22T04:00:30;100534.72;;;18.48;41.87
37792;BME280;29527;55.766;37.570;2023-05-22T04:02:56;100528.97;;;18.51;42.25
37792;BME280;29527;55.766;37.570;2023-05-22T04:05:23;100540.41;;;18.37;42.43
37792;BME280;29527;55.766;37.570;2023-05-22T04:07:48;100528.94;;;18.07;43.28
37792;BME280;29527;55.766;37.570;2023-05-22T04:10:14;100518.78;;;17.73;44.51
37792;BME280;29527;55.766;37.570;2023-05-22T04:12:40;100496.16;;;17.28;46.47
37792;BME280;29527;55.766;37.570;2023-05-22T04:15:06;100530.72;;;17.34;46.74
37792;BME280;29527;55.766;37.570;2023-05-22T04:17:32;100532.47;;;17.25;47.16
37792;BME280;29527;55.766;37.570;2023-05-22T04:19:58;100539.28;;;17.01;47.97
37792;BME280;29527;55.766;37.570;2023-05-22T04:22:27;100535.75;;;16.81;48.78
37792;BME280;29527;55.766;37.570;2023-05-22T04:24:55;100539.50;;;16.60;49.39
37792;BME280;29527;55.766;37.570;2023-05-22T04:27:21;100558.72;;;16.57;50.14
37792;BME280;29527;55.766;37.570;2023-05-22T04:29:47;100550.63;;;16.47;50.82
37792;BME280;29527;55.766;37.570;2023-05-22T04:32:15;100527.06;;;16.20;51.26
37792;BME280;29527;55.766;37.570;2023-05-22T04:34:45;100532.88;;;16.15;52.31
37792;BME280;29527;55.766;37.570;2023-05-22T04:37:10;100510.31;;;15.97;52.66
37792;BME280;29527;55.766;37.570;2023-05-22T04:39:39;100521.66;;;16.00;53.44
37792;BME280;29527;55.766;37.570;2023-05-22T04:42:05;100539.44;;;16.13;53.60
37792;BME280;29527;55.766;37.570;2023-05-22T04:44:31;100509.97;;;15.80;54.43
37792;BME280;29527;55.766;37.570;2023-05-22T04:47:00;100547.25;;;16.06;55.43
37792;BME280;29527;55.766;37.570;2023-05-22T04:49:26;100546.66;;;16.12;55.45
37792;BME280;29527;55.766;37.570;2023-05-22T04:51:54;100514.41;;;15.91;56.02
37792;BME280;29527;55.766;37.570;2023-05-22T04:54:19;100552.34;;;15.99;57.26
37792;BME280;29527;55.766;37.570;2023-05-22T04:56:45;100538.31;;;15.96;57.65
37792;BME280;29527;55.766;37.570;2023-05-22T04:59:11;100538.38;;;15.84;58.28
37792;BME280;29527;55.766;37.570;2023-05-22T05:01:40;100550.75;;;15.77;59.59
37792;BME280;29527;55.766;37.570;2023-05-22T05:04:10;100543.91;;;15.63;60.30
37792;BME280;29527;55.766;37.570;2023-05-22T05:06:36;100512.88;;;15.38;60.78
37792;BME280;29527;55.766;37.570;2023-05-22T05:09:05;100513.88;;;15.36;61.54
37792;BME280;29527;55.766;37.570;2023-05-22T05:11:31;100550.84;;;15.46;62.20
37792;BME280;29527;55.766;37.570;2023-05-22T05:13:57;100545.13;;;15.39;62.64
37792;BME280;29527;55.766;37.570;2023-05-22T05:16:23;100555.91;;;15.29;63.54
37792;BME280;29527;55.766;37.570;2023-05-22T05:18:50;100544.06;;;15.20;64.13
37792;BME280;29527;55.766;37.570;2023-05-22T05:21:16;100543.72;;;15.04;65.30
37792;BME280;29527;55.766;37.570;2023-05-22T05:23:44;100552.22;;;14.99;66.07
37792;BME280;29527;55.766;37.570;2023-05-22T05:26:10;100553.50;;;14.95;66.61
37792;BME280;29527;55.766;37.570;2023-05-22T05:28:36;100553.16;;;14.88;67.59
37792;BME280;29527;55.766;37.570;2023-05-22T05:31:01;100543.94;;;14.91;68.32
37792;BME280;29527;55.766;37.570;2023-05-22T05:33:27;100552.94;;;15.01;67.32
37792;BME280;29527;55.766;37.570;2023-05-22T05:35:53;100534.97;;;14.81;68.92
37792;BME280;29527;55.766;37.570;2023-05-22T05:38:18;100546.75;;;14.80;70.00
37792;BME280;29527;55.766;37.570;2023-05-22T05:40:44;100549.16;;;14.83;70.44
37792;BME280;29527;55.766;37.570;2023-05-22T05:43:10;100555.16;;;14.86;71.07
37792;BME280;29527;55.766;37.570;2023-05-22T05:45:38;100481.69;;;14.42;71.31
37792;BME280;29527;55.766;37.570;2023-05-22T05:48:04;100557.69;;;14.88;70.71
37792;BME280;29527;55.766;37.570;2023-05-22T05:50:29;100562.09;;;14.89;70.43
37792;BME280;29527;55.766;37.570;2023-05-22T05:52:55;100568.03;;;14.83;71.95
37792;BME280;29527;55.766;37.570;2023-05-22T05:55:21;100569.41;;;14.77;71.78
37792;BME280;29527;55.766;37.570;2023-05-22T05:57:46;100560.97;;;14.70;71.72
37792;BME280;29527;55.766;37.570;2023-05-22T06:00:12;100577.28;;;14.69;71.49
37792;BME280;29527;55.766;37.570;2023-05-22T06:02:38;100583.59;;;14.58;71.51
37792;BME280;29527;55.766;37.570;2023-05-22T06:05:04;100585.38;;;14.47;72.94
37792;BME280;29527;55.766;37.570;2023-05-22T06:07:30;100586.28;;;14.37;72.72
37792;BME280;29527;55.766;37.570;2023-05-22T06:09:57;100580.75;;;14.38;73.69
37792;BME280;29527;55.766;37.570;2023-05-22T06:12:23;100580.38;;;14.43;74.56
37792;BME280;29527;55.766;37.570;2023-05-22T06:14:49;100580.09;;;14.46;74.35
37792;BME280;29527;55.766;37.570;2023-05-22T06:17:15;100581.81;;;14.47;74.97
37792;BME280;29527;55.766;37.570;2023-05-22T06:19:40;100577.53;;;14.44;74.43
37792;BME280;29527;55.766;37.570;2023-05-22T06:22:06;100536.78;;;14.16;74.88
37792;BME280;29527;55.766;37.570;2023-05-22T06:24:32;100574.13;;;14.42;75.65
37792;BME280;29527;55.766;37.570;2023-05-22T06:27:00;100565.47;;;14.39;75.60
37792;BME280;29527;55.766;37.570;2023-05-22T06:29:26;100576.31;;;14.48;76.07
37792;BME280;29527;55.766;37.570;2023-05-22T06:31:52;100565.72;;;14.57;76.08
37792;BME280;29527;55.766;37.570;2023-05-22T06:34:17;100557.97;;;14.63;74.89
37792;BME280;29527;55.766;37.570;2023-05-22T06:36:43;100574.13;;;14.63;74.21
37792;BME280;29527;55.766;37.570;2023-05-22T06:39:10;100576.75;;;14.54;75.15
37792;BME280;29527;55.766;37.570;2023-05-22T06:41:35;100580.00;;;14.47;74.58
37792;BME280;29527;55.766;37.570;2023-05-22T06:44:01;100584.78;;;14.44;75.21
37792;BME280;29527;55.766;37.570;2023-05-22T06:46:27;100577.22;;;14.38;75.79
37792;BME280;29527;55.766;37.570;2023-05-22T06:48:52;100568.63;;;14.44;74.97
37792;BME280;29527;55.766;37.570;2023-05-22T06:51:20;100530.47;;;14.27;75.26
37792;BME280;29527;55.766;37.570;2023-05-22T06:53:46;100541.47;;;14.35;75.02
37792;BME280;29527;55.766;37.570;2023-05-22T06:56:11;100537.81;;;14.37;75.43
37792;BME280;29527;55.766;37.570;2023-05-22T06:58:38;100559.34;;;14.37;76.12
37792;BME280;29527;55.766;37.570;2023-05-22T07:01:03;100584.50;;;14.47;76.60
37792;BME280;29527;55.766;37.570;2023-05-22T07:03:29;100572.94;;;14.56;75.47
37792;BME280;29527;55.766;37.570;2023-05-22T07:05:54;100552.09;;;14.58;75.12
37792;BME280;29527;55.766;37.570;2023-05-22T07:08:24;100546.28;;;14.74;74.49
37792;BME280;29527;55.766;37.570;2023-05-22T07:10:50;100565.59;;;14.80;74.39
37792;BME280;29527;55.766;37.570;2023-05-22T07:13:16;100551.31;;;14.89;74.79
37792;BME280;29527;55.766;37.570;2023-05-22T07:15:42;100542.16;;;15.01;75.02
37792;BME280;29527;55.766;37.570;2023-05-22T07:18:08;100534.00;;;15.23;74.94
37792;BME280;29527;55.766;37.570;2023-05-22T07:20:35;100533.81;;;15.55;74.01
37792;BME280;29527;55.766;37.570;2023-05-22T07:23:01;100540.53;;;15.81;71.60
37792;BME280;29527;55.766;37.570;2023-05-22T07:25:27;100540.56;;;15.90;73.70
37792;BME280;29527;55.766;37.570;2023-05-22T07:27:53;100545.97;;;16.10;71.38
37792;BME280;29527;55.766;37.570;2023-05-22T07:30:19;100565.75;;;16.30;71.42
37792;BME280;29527;55.766;37.570;2023-05-22T07:32:45;100530.75;;;16.29;70.94
37792;BME280;29527;55.766;37.570;2023-05-22T07:35:11;100564.97;;;16.68;70.50
37792;BME280;29527;55.766;37.570;2023-05-22T07:37:36;100552.81;;;16.91;70.29
37792;BME280;29527;55.766;37.570;2023-05-22T07:40:04;100537.94;;;17.15;69.03
37792;BME280;29527;55.766;37.570;2023-05-22T07:42:31;100546.59;;;17.47;66.75
37792;BME280;29527;55.766;37.570;2023-05-22T07:44:56;100550.97;;;17.76;66.90
37792;BME280;29527;55.766;37.570;2023-05-22T07:47:22;100555.59;;;18.12;65.34
37792;BME280;29527;55.766;37.570;2023-05-22T07:49:47;100559.91;;;18.41;63.97
37792;BME280;29527;55.766;37.570;2023-05-22T07:52:13;100556.72;;;18.45;63.29
37792;BME280;29527;55.766;37.570;2023-05-22T07:54:38;100564.84;;;18.45;63.98
37792;BME280;29527;55.766;37.570;2023-05-22T07:57:04;100551.31;;;18.45;64.96
37792;BME280;29527;55.766;37.570;2023-05-22T07:59:30;100539.81;;;18.51;64.93
37792;BME280;29527;55.766;37.570;2023-05-22T08:01:57;100549.22;;;18.65;63.66
37792;BME280;29527;55.766;37.570;2023-05-22T08:04:23;100555.56;;;18.74;62.64
37792;BME280;29527;55.766;37.570;2023-05-22T08:06:48;100542.38;;;18.79;62.57
37792;BME280;29527;55.766;37.570;2023-05-22T08:09:14;100564.19;;;18.96;62.69
37792;BME280;29527;55.766;37.570;2023-05-22T08:11:40;100565.97;;;19.05;63.17
37792;BME280;29527;55.766;37.570;2023-05-22T08:14:06;100578.56;;;19.15;62.30
37792;BME280;29527;55.766;37.570;2023-05-22T08:16:32;100573.84;;;19.25;62.83
37792;BME280;29527;55.766;37.570;2023-05-22T08:18:57;100534.84;;;19.26;61.41
37792;BME280;29527;55.766;37.570;2023-05-22T08:21:23;100532.19;;;19.43;61.21
37792;BME280;29527;55.766;37.570;2023-05-22T08:23:49;100575.09;;;19.82;60.07
37792;BME280;29527;55.766;37.570;2023-05-22T08:26:14;100575.09;;;19.82;60.01
37792;BME280;29527;55.766;37.570;2023-05-22T08:28:40;100567.56;;;19.68;60.51
37792;BME280;29527;55.766;37.570;2023-05-22T08:31:09;100572.66;;;19.62;60.92
37792;BME280;29527;55.766;37.570;2023-05-22T08:33:35;100574.69;;;19.69;60.95
37792;BME280;29527;55.766;37.570;2023-05-22T08:36:01;100559.06;;;19.62;60.66
37792;BME280;29527;55.766;37.570;2023-05-22T08:38:26;100558.72;;;19.57;60.77
37792;BME280;29527;55.766;37.570;2023-05-22T08:40:52;100571.09;;;19.51;61.34
37792;BME280;29527;55.766;37.570;2023-05-22T08:43:19;100537.25;;;19.29;60.36
37792;BME280;29527;55.766;37.570;2023-05-22T08:45:58;100553.56;;;19.46;61.24
37792;BME280;29527;55.766;37.570;2023-05-22T08:48:27;100560.28;;;19.25;61.71
37792;BME280;29527;55.766;37.570;2023-05-22T08:50:58;100554.91;;;19.33;61.25
37792;BME280;29527;55.766;37.570;2023-05-22T08:53:27;100559.59;;;19.66;60.69
37792;BME280;29527;55.766;37.570;2023-05-22T08:55:53;100544.19;;;19.83;60.09
37792;BME280;29527;55.766;37.570;2023-05-22T08:58:20;100516.31;;;19.89;60.38
37792;BME280;29527;55.766;37.570;2023-05-22T09:00:46;100543.06;;;20.27;58.89
37792;BME280;29527;55.766;37.570;2023-05-22T09:03:12;100548.13;;;20.55;57.28
37792;BME280;29527;55.766;37.570;2023-05-22T09:05:39;100547.09;;;20.89;56.07
37792;BME280;29527;55.766;37.570;2023-05-22T09:08:08;100497.91;;;20.99;57.02
37792;BME280;29527;55.766;37.570;2023-05-22T09:10:33;100519.84;;;21.37;57.37
37792;BME280;29527;55.766;37.570;2023-05-22T09:13:04;100499.34;;;21.50;55.50
37792;BME280;29527;55.766;37.570;2023-05-22T09:15:33;100533.63;;;21.99;53.54
37792;BME280;29527;55.766;37.570;2023-05-22T09:17:59;100531.31;;;22.34;52.20
37792;BME280;29527;55.766;37.570;2023-05-22T09:20:25;100546.19;;;22.70;50.52
37792;BME280;29527;55.766;37.570;2023-05-22T09:22:51;100523.31;;;23.01;50.52
37792;BME280;29527;55.766;37.570;2023-05-22T09:25:19;100535.34;;;23.22;49.59
37792;BME280;29527;55.766;37.570;2023-05-22T09:27:47;100536.00;;;23.24;47.44
37792;BME280;29527;55.766;37.570;2023-05-22T09:30:17;100535.84;;;23.41;48.21
37792;BME280;29527;55.766;37.570;2023-05-22T09:32:47;100528.75;;;23.46;47.94
37792;BME280;29527;55.766;37.570;2023-05-22T09:35:13;100527.34;;;23.35;46.46
37792;BME280;29527;55.766;37.570;2023-05-22T09:37:39;100528.28;;;23.43;47.44
37792;BME280;29527;55.766;37.570;2023-05-22T09:40:07;100534.75;;;23.57;46.80
37792;BME280;29527;55.766;37.570;2023-05-22T09:42:34;100537.09;;;23.60;46.85
37792;BME280;29527;55.766;37.570;2023-05-22T09:45:07;100523.97;;;23.70;47.20
37792;BME280;29527;55.766;37.570;2023-05-22T09:47:34;100525.53;;;23.58;47.13
37792;BME280;29527;55.766;37.570;2023-05-22T09:50:02;100522.44;;;23.46;47.36
37792;BME280;29527;55.766;37.570;2023-05-22T09:52:34;100521.66;;;23.52;47.92
37792;BME280;29527;55.766;37.570;2023-05-22T09:55:03;100501.00;;;23.28;47.35
37792;BME280;29527;55.766;37.570;2023-05-22T09:57:32;100533.06;;;23.56;47.81
37792;BME280;29527;55.766;37.570;2023-05-22T10:00:03;100519.09;;;23.65;45.83
37792;BME280;29527;55.766;37.570;2023-05-22T10:02:34;100522.28;;;23.69;44.57
37792;BME280;29527;55.766;37.570;2023-05-22T10:05:05;100500.53;;;23.61;44.42
37792;BME280;29527;55.766;37.570;2023-05-22T10:07:36;100522.09;;;23.71;45.74
37792;BME280;29527;55.766;37.570;2023-05-22T10:10:06;100527.00;;;23.60;45.42
37792;BME280;29527;55.766;37.570;2023-05-22T10:12:39;100512.03;;;23.56;45.54
37792;BME280;29527;55.766;37.570;2023-05-22T10:15:06;100516.50;;;23.42;45.78
37792;BME280;29527;55.766;37.570;2023-05-22T10:17:34;100512.38;;;23.16;45.21
37792;BME280;29527;55.766;37.570;2023-05-22T10:20:01;100522.28;;;22.72;45.63
37792;BME280;29527;55.766;37.570;2023-05-22T10:22:31;100488.75;;;22.48;45.79
37792;BME280;29527;55.766;37.570;2023-05-22T10:24:57;100516.59;;;22.20;46.75
37792;BME280;29527;55.766;37.570;2023-05-22T10:27:23;100509.28;;;21.98;46.96
37792;BME280;29527;55.766;37.570;2023-05-22T10:32:38;100526.66;;;21.73;49.34
37792;BME280;29527;55.766;37.570;2023-05-22T10:37:51;100510.19;;;21.58;48.74
37792;BME280;29527;55.766;37.570;2023-05-22T10:40:26;100516.84;;;21.56;49.61
37792;BME280;29527;55.766;37.570;2023-05-22T10:42:58;100518.66;;;21.63;48.92
37792;BME280;29527;55.766;37.570;2023-05-22T10:45:25;100515.69;;;21.50;48.93
37792;BME280;29527;55.766;37.570;2023-05-22T10:48:08;100524.81;;;21.65;49.50
37792;BME280;29527;55.766;37.570;2023-05-22T10:50:36;100510.50;;;21.72;49.53
37792;BME280;29527;55.766;37.570;2023-05-22T10:53:25;100516.06;;;22.02;49.36
37792;BME280;29527;55.766;37.570;2023-05-22T10:55:57;100504.28;;;22.01;48.47
37792;BME280;29527;55.766;37.570;2023-05-22T10:58:28;100510.25;;;22.05;48.29
37792;BME280;29527;55.766;37.570;2023-05-22T11:01:16;100509.38;;;22.28;48.68
37792;BME280;29527;55.766;37.570;2023-05-22T11:08:58;100499.22;;;23.05;47.04
37792;BME280;29527;55.766;37.570;2023-05-22T11:11:25;100498.81;;;23.38;46.26
37792;BME280;29527;55.766;37.570;2023-05-22T11:13:51;100497.53;;;23.04;46.45
37792;BME280;29527;55.766;37.570;2023-05-22T11:16:18;100489.63;;;22.79;46.49
37792;BME280;29527;55.766;37.570;2023-05-22T11:18:43;100482.13;;;22.43;47.61
37792;BME280;29527;55.766;37.570;2023-05-22T11:21:11;100488.38;;;22.28;48.70
37792;BME280;29527;55.766;37.570;2023-05-22T11:23:38;100497.44;;;22.44;47.82
37792;BME280;29527;55.766;37.570;2023-05-22T11:26:17;100481.59;;;22.47;47.87
37792;BME280;29527;55.766;37.570;2023-05-22T11:28:48;100487.53;;;22.13;49.05
37792;BME280;29527;55.766;37.570;2023-05-22T11:31:14;100473.19;;;21.96;49.77
37792;BME280;29527;55.766;37.570;2023-05-22T11:33:41;100478.63;;;21.96;49.85
37792;BME280;29527;55.766;37.570;2023-05-22T11:36:07;100488.94;;;22.08;49.57
37792;BME280;29527;55.766;37.570;2023-05-22T11:38:33;100483.72;;;21.99;49.91
37792;BME280;29527;55.766;37.570;2023-05-22T11:40:59;100463.72;;;21.83;50.50
37792;BME280;29527;55.766;37.570;2023-05-22T11:43:29;100476.66;;;22.04;51.11
37792;BME280;29527;55.766;37.570;2023-05-22T11:46:07;100483.78;;;22.29;49.87
37792;BME280;29527;55.766;37.570;2023-05-22T11:48:34;100472.50;;;21.93;50.39
37792;BME280;29527;55.766;37.570;2023-05-22T11:51:01;100465.34;;;21.92;50.58
37792;BME280;29527;55.766;37.570;2023-05-22T11:53:30;100468.59;;;22.11;50.05
37792;BME280;29527;55.766;37.570;2023-05-22T11:56:03;100463.72;;;22.06;50.45
37792;BME280;29527;55.766;37.570;2023-05-22T11:58:29;100465.78;;;21.81;51.30
37792;BME280;29527;55.766;37.570;2023-05-22T12:01:02;100456.47;;;21.75;51.91
37792;BME280;29527;55.766;37.570;2023-05-22T12:03:28;100459.41;;;21.65;52.22
37792;BME280;29527;55.766;37.570;2023-05-22T12:05:57;100439.81;;;21.70;52.63
37792;BME280;29527;55.766;37.570;2023-05-22T12:08:26;100449.81;;;21.78;52.29
37792;BME280;29527;55.766;37.570;2023-05-22T12:10:52;100451.91;;;21.68;52.48
37792;BME280;29527;55.766;37.570;2023-05-22T12:15:48;100438.72;;;22.18;50.90
37792;BME280;29527;55.766;37.570;2023-05-22T12:18:16;100431.69;;;22.23;50.85
37792;BME280;29527;55.766;37.570;2023-05-22T12:20:42;100428.72;;;22.10;52.03
37792;BME280;29527;55.766;37.570;2023-05-22T12:23:27;100432.34;;;22.26;50.99
37792;BME280;29527;55.766;37.570;2023-05-22T12:26:08;100434.97;;;22.34;51.14
37792;BME280;29527;55.766;37.570;2023-05-22T12:28:34;100431.84;;;22.22;50.72
37792;BME280;29527;55.766;37.570;2023-05-22T12:31:00;100427.16;;;22.16;50.96
37792;BME280;29527;55.766;37.570;2023-05-22T12:35:55;100417.00;;;22.10;51.51
37792;BME280;29527;55.766;37.570;2023-05-22T12:38:29;100416.63;;;22.28;50.60
37792;BME280;29527;55.766;37.570;2023-05-22T12:40:55;100414.84;;;22.20;51.00
37792;BME280;29527;55.766;37.570;2023-05-22T12:43:24;100418.31;;;22.29;51.21
37792;BME280;29527;55.766;37.570;2023-05-22T12:45:50;100412.28;;;22.18;50.87
37792;BME280;29527;55.766;37.570;2023-05-22T12:48:17;100398.09;;;22.23;50.49
37792;BME280;29527;55.766;37.570;2023-05-22T12:50:43;100397.31;;;22.14;51.01
37792;BME280;29527;55.766;37.570;2023-05-22T12:53:09;100398.97;;;22.23;50.99
37792;BME280;29527;55.766;37.570;2023-05-22T12:55:35;100390.94;;;22.37;50.01
37792;BME280;29527;55.766;37.570;2023-05-22T12:58:00;100318.72;;;22.18;48.99
37792;BME280;29527;55.766;37.570;2023-05-22T13:00:26;100395.03;;;22.71;47.92
37792;BME280;29527;55.766;37.570;2023-05-22T13:02:52;100381.19;;;22.73;48.18
37792;BME280;29527;55.766;37.570;2023-05-22T13:05:17;100364.16;;;22.71;48.11
37792;BME280;29527;55.766;37.570;2023-05-22T13:07:43;100394.31;;;22.99;47.02
37792;BME280;29527;55.766;37.570;2023-05-22T13:10:09;100390.28;;;22.95;46.09
37792;BME280;29527;55.766;37.570;2023-05-22T13:12:34;100380.66;;;22.99;45.18
37792;BME280;29527;55.766;37.570;2023-05-22T13:15:00;100366.63;;;23.02;44.98
37792;BME280;29527;55.766;37.570;2023-05-22T13:17:27;100352.06;;;22.95;45.27